createdAt,value
2023-05-19T00:01:21.536Z,30.90
2023-05-19T00:04:07.865Z,25.65
2023-05-19T00:06:39.366Z,23.73
2023-05-19T00:09:10.788Z,22.05
2023-05-19T00:11:41.993Z,23.30
2023-05-19T00:14:14.896Z,22.88
2023-05-19T00:16:42.418Z,19.35
2023-05-19T00:19:10.357Z,24.20
2023-05-19T00:21:41.184Z,19.70
2023-05-19T00:24:10.790Z,21.42
2023-05-19T00:26:37.495Z,17.65
2023-05-19T00:29:04.681Z,17.13
2023-05-19T00:31:31.875Z,18.70
2023-05-19T00:33:58.559Z,22.13
2023-05-19T00:36:27.668Z,23.55
2023-05-19T00:38:57.421Z,18.77
2023-05-19T00:41:26.861Z,21.67
2023-05-19T00:43:56.662Z,19.27
2023-05-19T00:46:23.488Z,18.73
2023-05-19T00:48:50.129Z,19.23
2023-05-19T00:51:17.363Z,21.42
2023-05-19T00:53:51.349Z,20.25
2023-05-19T00:56:24.475Z,19.48
2023-05-19T00:58:54.552Z,20.20
2023-05-19T01:01:24.568Z,17.48
2023-05-19T01:03:51.556Z,24.30
2023-05-19T01:06:19.450Z,19.38
2023-05-19T01:08:49.324Z,19.40
2023-05-19T01:11:15.914Z,18.73
2023-05-19T01:13:43.378Z,18.70
2023-05-19T01:16:34.895Z,19.63
2023-05-19T01:19:16.522Z,20.60
2023-05-19T01:22:14.796Z,19.42
2023-05-19T01:25:03.026Z,18.83
2023-05-19T01:27:49.529Z,26.77
2023-05-19T01:33:11.395Z,16.02
2023-05-19T01:35:39.863Z,17.60
2023-05-19T01:38:11.388Z,14.52
2023-05-19T01:40:42.847Z,16.98
2023-05-19T01:43:12.636Z,15.38
2023-05-19T01:45:40.865Z,15.00
2023-05-19T01:48:11.170Z,18.73
2023-05-19T01:50:38.219Z,16.30
2023-05-19T01:53:06.806Z,14.75
2023-05-19T01:55:41.625Z,18.23
2023-05-19T01:58:20.819Z,16.33
2023-05-19T02:01:03.015Z,16.50
2023-05-19T02:03:46.110Z,14.40
2023-05-19T02:06:59.905Z,15.63
2023-05-19T02:09:53.610Z,16.58
2023-05-19T02:12:30.982Z,14.32
2023-05-19T02:15:24.865Z,20.40
2023-05-19T02:17:56.268Z,17.65
2023-05-19T02:20:27.413Z,17.13
2023-05-19T02:22:56.118Z,15.88
2023-05-19T02:25:25.671Z,17.30
2023-05-19T02:27:58.944Z,15.65
2023-05-19T02:30:28.300Z,15.68
2023-05-19T02:32:57.277Z,17.58
2023-05-19T02:35:31.325Z,19.23
2023-05-19T02:37:58.964Z,16.73
2023-05-19T02:40:31.665Z,22.10
2023-05-19T02:42:58.374Z,17.02
2023-05-19T02:45:28.090Z,17.38
2023-05-19T02:47:54.798Z,22.58
2023-05-19T02:50:22.657Z,18.80
2023-05-19T02:52:49.292Z,20.40
2023-05-19T02:55:17.730Z,17.60
2023-05-19T02:57:46.269Z,16.13
2023-05-19T03:00:13.550Z,18.92
2023-05-19T03:02:44.448Z,20.88
2023-05-19T03:05:11.282Z,15.95
2023-05-19T03:07:37.914Z,20.83
2023-05-19T03:10:06.739Z,19.30
2023-05-19T03:12:33.861Z,24.83
2023-05-19T03:15:01.019Z,21.13
2023-05-19T03:17:28.859Z,18.55
2023-05-19T03:19:55.852Z,22.58
2023-05-19T03:22:22.492Z,20.33
2023-05-19T03:24:51.191Z,21.05
2023-05-19T03:27:17.901Z,22.88
2023-05-19T03:29:44.533Z,24.75
2023-05-19T03:32:11.271Z,23.55
2023-05-19T03:34:37.942Z,28.23
2023-05-19T03:37:04.865Z,27.00
2023-05-19T03:39:31.543Z,23.55
2023-05-19T03:41:58.176Z,25.75
2023-05-19T03:44:24.813Z,23.10
2023-05-19T03:46:53.050Z,23.80
2023-05-19T03:49:19.686Z,25.00
2023-05-19T03:51:46.267Z,15.43
2023-05-19T03:54:14.044Z,16.83
2023-05-19T03:56:43.283Z,14.82
2023-05-19T03:59:12.383Z,19.15
2023-05-19T04:01:39.203Z,13.70
2023-05-19T04:04:05.900Z,12.05
2023-05-19T04:06:33.957Z,17.60
2023-05-19T04:09:04.093Z,21.52
2023-05-19T04:11:30.841Z,18.58
2023-05-19T04:13:57.528Z,18.25
2023-05-19T04:16:24.353Z,22.45
2023-05-19T04:18:51.215Z,17.73
2023-05-19T04:21:17.874Z,15.52
2023-05-19T04:23:46.612Z,16.90
2023-05-19T04:26:14.823Z,14.93
2023-05-19T04:28:42.503Z,19.25
2023-05-19T04:31:13.171Z,15.70
2023-05-19T04:33:41.019Z,16.20
2023-05-19T04:36:10.630Z,15.68
2023-05-19T04:38:39.958Z,14.50
2023-05-19T04:41:10.718Z,18.08
2023-05-19T04:43:41.839Z,16.55
2023-05-19T04:46:13.194Z,19.75
2023-05-19T04:48:41.267Z,14.70
2023-05-19T04:51:08.145Z,20.38
2023-05-19T04:53:35.064Z,20.40
2023-05-19T04:56:02.307Z,17.27
2023-05-19T04:58:29.113Z,13.88
2023-05-19T05:00:56.545Z,12.95
2023-05-19T05:03:23.741Z,15.18
2023-05-19T05:05:51.068Z,13.07
2023-05-19T05:08:25.155Z,20.33
2023-05-19T05:10:53.042Z,13.90
2023-05-19T05:13:22.999Z,18.85
2023-05-19T05:15:50.305Z,13.93
2023-05-19T05:18:17.998Z,11.82
2023-05-19T05:20:49.164Z,14.02
2023-05-19T05:23:16.806Z,12.10
2023-05-19T05:25:45.186Z,12.23
2023-05-19T05:28:11.995Z,11.35
2023-05-19T05:30:38.939Z,10.25
2023-05-19T05:33:09.657Z,13.55
2023-05-19T05:35:36.601Z,11.50
2023-05-19T05:38:05.255Z,14.07
2023-05-19T05:40:37.050Z,12.57
2023-05-19T05:43:03.660Z,9.32
2023-05-19T05:45:30.426Z,10.50
2023-05-19T05:48:06.281Z,11.73
2023-05-19T05:50:38.958Z,9.40
2023-05-19T05:53:09.612Z,13.23
2023-05-19T05:55:36.581Z,11.93
2023-05-19T05:58:03.726Z,9.88
2023-05-19T06:00:38.282Z,9.25
2023-05-19T06:03:11.401Z,11.55
2023-05-19T06:05:38.681Z,13.10
2023-05-19T06:08:13.298Z,10.43
2023-05-19T06:10:41.845Z,13.55
2023-05-19T06:13:13.709Z,13.57
2023-05-19T06:15:40.450Z,32.42
2023-05-19T06:18:07.291Z,17.30
2023-05-19T06:20:36.495Z,12.65
2023-05-19T06:23:07.685Z,16.35
2023-05-19T06:25:35.196Z,16.33
2023-05-19T06:28:04.660Z,17.42
2023-05-19T06:30:31.758Z,25.02
2023-05-19T06:32:59.366Z,14.52
2023-05-19T06:35:26.170Z,13.65
2023-05-19T06:37:53.216Z,18.90
2023-05-19T06:40:23.375Z,12.55
2023-05-19T06:42:50.048Z,15.20
2023-05-19T06:45:17.127Z,13.75
2023-05-19T06:47:51.176Z,17.13
2023-05-19T06:50:17.952Z,14.25
2023-05-19T06:52:47.058Z,14.93
2023-05-19T06:55:19.542Z,15.90
2023-05-19T06:57:48.266Z,24.60
2023-05-19T07:00:23.651Z,17.10
2023-05-19T07:03:09.030Z,11.75
2023-05-19T07:05:39.411Z,18.35
2023-05-19T07:08:06.898Z,12.85
2023-05-19T07:10:35.714Z,17.20
2023-05-19T07:13:03.416Z,15.30
2023-05-19T07:15:30.051Z,16.65
2023-05-19T07:18:04.706Z,15.05
2023-05-19T07:20:33.727Z,13.10
2023-05-19T07:23:02.666Z,12.80
2023-05-19T07:25:35.199Z,13.98
2023-05-19T07:28:01.799Z,17.02
2023-05-19T07:30:34.470Z,11.40
2023-05-19T07:33:04.092Z,15.95
2023-05-19T07:35:33.668Z,12.63
2023-05-19T07:38:00.296Z,13.20
2023-05-19T07:40:27.088Z,11.60
2023-05-19T07:42:58.938Z,15.73
2023-05-19T07:45:25.776Z,11.65
2023-05-19T07:47:54.348Z,14.63
2023-05-19T07:50:24.100Z,12.55
2023-05-19T07:52:52.121Z,14.52
2023-05-19T07:55:23.524Z,15.05
2023-05-19T07:57:53.000Z,19.75
2023-05-19T08:00:21.005Z,12.20
2023-05-19T08:02:47.965Z,13.98
2023-05-19T08:05:17.694Z,16.20
2023-05-19T08:07:44.524Z,11.80
2023-05-19T08:10:13.350Z,15.57
2023-05-19T08:12:40.159Z,16.80
2023-05-19T08:15:08.541Z,19.23
2023-05-19T08:17:40.398Z,20.08
2023-05-19T08:20:15.617Z,18.90
2023-05-19T08:22:47.615Z,14.75
2023-05-19T08:25:14.337Z,14.63
2023-05-19T08:27:41.473Z,11.50
2023-05-19T08:30:16.168Z,19.08
2023-05-19T08:32:44.143Z,13.93
2023-05-19T08:35:13.656Z,15.45
2023-05-19T08:37:41.050Z,10.85
2023-05-19T08:40:17.421Z,15.60
2023-05-19T08:42:50.179Z,26.30
2023-05-19T08:45:17.900Z,16.55
2023-05-19T08:47:47.138Z,20.85
2023-05-19T08:50:21.459Z,18.00
2023-05-19T08:52:53.540Z,11.50
2023-05-19T08:55:51.690Z,12.23
2023-05-19T08:58:23.528Z,20.13
2023-05-19T09:00:51.292Z,19.42
2023-05-19T09:06:00.716Z,12.05
2023-05-19T09:08:29.291Z,11.93
2023-05-19T09:11:00.914Z,12.60
2023-05-19T09:13:29.609Z,18.02
2023-05-19T09:16:01.740Z,19.33
2023-05-19T09:18:28.426Z,15.25
2023-05-19T09:21:04.911Z,12.38
2023-05-19T09:23:41.000Z,10.50
2023-05-19T09:26:10.405Z,13.40
2023-05-19T09:28:40.654Z,13.98
2023-05-19T09:31:14.151Z,15.93
2023-05-19T09:33:45.629Z,17.13
2023-05-19T09:36:19.163Z,14.30
2023-05-19T09:38:46.026Z,13.43
2023-05-19T09:41:16.850Z,16.48
2023-05-19T09:43:57.556Z,14.57
2023-05-19T09:46:32.291Z,11.02
2023-05-19T09:49:19.593Z,13.23
2023-05-19T09:51:48.437Z,15.15
2023-05-19T09:54:17.893Z,10.07
2023-05-19T09:56:44.577Z,12.27
2023-05-19T09:59:16.432Z,12.52
2023-05-19T10:01:51.485Z,15.05
2023-05-19T10:04:18.441Z,11.45
2023-05-19T10:06:57.616Z,9.32
2023-05-19T10:09:26.166Z,11.98
2023-05-19T10:11:54.187Z,8.55
2023-05-19T10:14:26.552Z,12.65
2023-05-19T10:16:56.389Z,7.82
2023-05-19T10:19:24.952Z,10.25
2023-05-19T10:21:52.555Z,18.17
2023-05-19T10:24:19.773Z,12.68
2023-05-19T10:27:03.093Z,7.10
2023-05-19T10:29:33.342Z,13.82
2023-05-19T10:32:07.433Z,7.88
2023-05-19T10:35:11.746Z,10.85
2023-05-19T10:37:46.653Z,9.85
2023-05-19T10:40:27.681Z,10.77
2023-05-19T10:43:05.438Z,7.38
2023-05-19T10:45:41.064Z,9.00
2023-05-19T10:48:14.010Z,7.60
2023-05-19T10:50:40.789Z,9.70
2023-05-19T10:53:14.858Z,9.88
2023-05-19T10:55:47.442Z,10.48
2023-05-19T10:58:14.314Z,5.80
2023-05-19T11:00:43.751Z,6.68
2023-05-19T11:03:15.636Z,10.00
2023-05-19T11:05:45.908Z,8.57
2023-05-19T11:08:13.292Z,12.38
2023-05-19T11:10:43.584Z,11.35
2023-05-19T11:13:22.472Z,11.93
2023-05-19T11:15:50.023Z,8.15
2023-05-19T11:18:16.848Z,12.13
2023-05-19T11:20:44.711Z,11.43
2023-05-19T11:23:19.603Z,7.85
2023-05-19T11:25:51.652Z,8.38
2023-05-19T11:28:20.276Z,12.85
2023-05-19T11:30:50.590Z,7.25
2023-05-19T11:33:19.499Z,11.25
2023-05-19T11:35:47.461Z,13.77
2023-05-19T11:38:14.573Z,12.50
2023-05-19T11:40:44.925Z,9.40
2023-05-19T11:43:11.574Z,12.80
2023-05-19T11:45:38.518Z,12.38
2023-05-19T11:48:06.088Z,16.63
2023-05-19T11:50:33.371Z,12.85
2023-05-19T11:53:01.183Z,15.68
2023-05-19T11:55:29.144Z,12.90
2023-05-19T11:58:03.847Z,16.10
2023-05-19T12:00:40.813Z,23.00
2023-05-19T12:03:10.749Z,22.92
2023-05-19T12:05:43.786Z,25.98
2023-05-19T12:08:11.704Z,15.65
2023-05-19T12:10:39.536Z,20.23
2023-05-19T12:13:09.168Z,20.90
2023-05-19T12:15:36.617Z,19.02
2023-05-19T12:18:04.077Z,15.05
2023-05-19T12:20:32.706Z,26.48
2023-05-19T12:23:00.904Z,15.10
2023-05-19T12:25:29.369Z,12.60
2023-05-19T12:28:06.145Z,20.20
2023-05-19T12:30:34.318Z,16.45
2023-05-19T12:33:02.841Z,13.52
2023-05-19T12:35:32.264Z,17.58
2023-05-19T12:38:03.968Z,20.88
2023-05-19T12:40:30.931Z,12.93
2023-05-19T12:42:59.306Z,8.30
2023-05-19T12:45:28.448Z,9.10
2023-05-19T12:47:56.264Z,21.08
2023-05-19T12:50:33.135Z,8.57
2023-05-19T12:53:00.081Z,11.45
2023-05-19T12:55:26.960Z,9.88
2023-05-19T12:57:57.180Z,17.80
2023-05-19T13:00:28.957Z,16.05
2023-05-19T13:03:00.654Z,16.17
2023-05-19T13:05:38.076Z,12.05
2023-05-19T13:08:16.316Z,18.17
2023-05-19T13:10:46.302Z,9.20
2023-05-19T13:13:14.172Z,12.60
2023-05-19T13:15:44.421Z,12.35
2023-05-19T13:18:13.086Z,6.15
2023-05-19T13:20:45.433Z,10.30
2023-05-19T13:23:14.450Z,9.48
2023-05-19T13:25:42.408Z,8.48
2023-05-19T13:28:10.674Z,10.57
2023-05-19T13:30:42.034Z,15.63
2023-05-19T13:33:09.092Z,16.33
2023-05-19T13:35:39.772Z,8.27
2023-05-19T13:38:10.082Z,14.95
2023-05-19T13:40:37.770Z,6.60
2023-05-19T13:43:04.834Z,14.95
2023-05-19T13:45:31.738Z,10.68
2023-05-19T13:47:58.700Z,7.53
2023-05-19T13:50:27.259Z,8.00
2023-05-19T13:52:54.241Z,4.18
2023-05-19T13:55:21.226Z,3.15
2023-05-19T13:57:48.013Z,6.65
2023-05-19T14:00:18.391Z,5.68
2023-05-19T14:02:45.810Z,5.15
2023-05-19T14:05:15.390Z,9.57
2023-05-19T14:07:44.838Z,12.05
2023-05-19T14:10:11.793Z,7.55
2023-05-19T14:12:55.066Z,7.93
2023-05-19T14:15:27.442Z,5.50
2023-05-19T14:17:55.117Z,3.20
2023-05-19T14:20:23.788Z,7.28
2023-05-19T14:22:50.939Z,11.95
2023-05-19T14:25:17.767Z,8.63
2023-05-19T14:27:44.559Z,6.35
2023-05-19T14:30:11.673Z,4.55
2023-05-19T14:32:39.343Z,6.28
2023-05-19T14:35:12.101Z,6.45
2023-05-19T14:37:38.869Z,2.58
2023-05-19T14:40:07.380Z,4.38
2023-05-19T14:42:34.189Z,4.43
2023-05-19T14:45:01.087Z,9.55
2023-05-19T14:47:28.375Z,6.28
2023-05-19T14:49:55.321Z,3.53
2023-05-19T14:52:22.840Z,7.18
2023-05-19T14:54:49.742Z,12.95
2023-05-19T14:57:16.489Z,9.38
2023-05-19T14:59:43.318Z,5.20
2023-05-19T15:02:13.369Z,7.35
2023-05-19T15:04:40.289Z,10.25
2023-05-19T15:07:10.119Z,4.05
2023-05-19T15:09:37.907Z,7.03
